Hlavní strana
METAR-TAF:

METAR-TAF

Letiště :

Greenwood County Airport

Greenwood, Jižní Karolína, Spojené státy americké

zeměpisná šířka: 34-14-50N, zeměpisná délka: 082-09-17W, výška: 192 m

Aktuální stav počasí

Zpráva byla vytvořena před 36 minutami, v 23:56 UTC
Jihozápadní vítr 7 kt
Teplota 9°C
Vlhkost vzduchu 57%
Tlak 1016 hPa
Viditelnost: 16.1 km
Skoro jasno ve výšce 12000 ft

METAR: KGRD 262356Z AUTO 23007KT 10SM FEW120 09/01 A2999 RMK AO2 SLP159 T00890006 10133 20089 52000

Čas: 19:32 (00:32 UTC)


TAF: chybějící

Stav a předpovědi počasí z více než 4 000 letišť (zprávy METAR a TAF).

Červené a žluté tečky na mapě představují dostupné meteorologické stanice.

Když kurzor umístíte na tečku, zobrazí se název stanice.

Pak kliknutím zobrazíte stav a předpověď počasí.

Chcete-li změnit mapu, kliknutím na zelené tlačítko se znaménkem +mapu přiblížíte, kliknutím na zelené tlačítko se znaménkem – mapu oddálíte a kliknutím na zelené šipky přejdete na sousední mapy.


METAR-TAF: